Time;durP1;ratioP1;P1;durP2;ratioP2;P2;SDS_P1;SDS_P2;PMS_P1;PMS_P2;Temp;Humidity;BMP_temperature;BMP_pressure;BME280_temperature;BME280_humidity;BME280_pressure;Samples;Min_cycle;Max_cycle;Signal;HPM_P1;HPM_P2
2024/01/09 06:37:52;;;;;;;10.43;5.20;;;;;;;-14.57;87.19;103136.34;4868452;23;1545146;-90
2024/01/09 06:40:20;;;;;;;9.93;5.87;;;;;;;-14.61;87.77;103138.38;4915494;29;20050;-92
2024/01/09 06:42:47;;;;;;;16.00;5.87;;;;;;;-14.64;89.14;103138.88;4932213;29;20300;-91
2024/01/09 06:45:14;;;;;;;10.10;4.83;;;;;;;-14.64;88.72;103133.81;4930812;29;20374;-90
2024/01/09 06:47:42;;;;;;;10.97;5.20;;;;;;;-14.66;88.01;103141.97;4929160;29;20335;-90
2024/01/09 06:50:10;;;;;;;10.03;5.10;;;;;;;-14.72;88.49;103133.63;4919731;29;20791;-90
2024/01/09 06:52:56;;;;;;;8.97;4.23;;;;;;;-14.52;88.06;103137.81;4904985;29;20390;-91
2024/01/09 06:55:23;;;;;;;8.80;4.03;;;;;;;-14.50;87.54;103138.00;4925749;29;20292;-91
2024/01/09 06:57:51;;;;;;;11.17;4.60;;;;;;;-14.56;87.27;103140.72;4916289;29;20318;-90
2024/01/09 07:00:21;;;;;;;13.30;6.73;;;;;;;-14.73;87.09;103136.88;4930857;29;20370;-90
2024/01/09 07:02:49;;;;;;;9.23;6.23;;;;;;;-14.87;89.07;103136.16;4934893;29;20299;-90
2024/01/09 07:05:16;;;;;;;9.87;4.93;;;;;;;-14.74;89.88;103135.97;4919429;29;20323;-90
2024/01/09 07:07:44;;;;;;;11.83;4.27;;;;;;;-14.87;89.36;103132.72;4919062;29;20303;-90
2024/01/09 07:10:17;;;;;;;14.33;5.40;;;;;;;-14.89;90.14;103140.13;4919080;29;20295;-90
2024/01/09 07:12:45;;;;;;;11.57;5.80;;;;;;;-14.83;90.74;103135.78;4904181;29;20350;-90
2024/01/09 07:15:14;;;;;;;10.23;5.03;;;;;;;-14.61;89.37;103133.28;4919282;29;20326;-90
2024/01/09 07:17:44;;;;;;;9.93;5.23;;;;;;;-14.61;87.39;103141.81;4935409;29;20291;-91
2024/01/09 07:20:12;;;;;;;7.50;4.50;;;;;;;-14.68;86.70;103151.03;4919114;29;20291;-90
2024/01/09 07:22:40;;;;;;;10.23;3.90;;;;;;;-14.62;87.27;103147.63;4903534;29;20291;-90
2024/01/09 07:25:12;;;;;;;13.00;5.43;;;;;;;-14.55;86.68;103156.84;4909262;29;20306;-90
2024/01/09 07:27:39;;;;;;;15.87;5.40;;;;;;;-14.69;86.25;103154.31;4911559;29;20394;-89
2024/01/09 07:30:07;;;;;;;12.53;5.43;;;;;;;-14.69;87.12;103161.91;4903492;29;20295;-90
2024/01/09 07:32:35;;;;;;;10.37;4.60;;;;;;;-14.57;87.32;103160.84;4903666;29;20307;-90
2024/01/09 07:35:03;;;;;;;12.20;4.97;;;;;;;-14.57;86.42;103155.75;4936121;29;20307;-90
2024/01/09 07:37:31;;;;;;;16.13;5.33;;;;;;;-14.56;86.60;103155.94;4904005;29;20306;-90
2024/01/09 07:39:58;;;;;;;8.90;5.50;;;;;;;-14.60;86.84;103160.47;4897130;29;20306;-90
2024/01/09 07:42:25;;;;;;;15.67;5.73;;;;;;;-14.59;87.66;103158.13;4919762;29;20292;-90
2024/01/09 07:44:53;;;;;;;11.87;5.03;;;;;;;-14.67;88.65;103157.94;4920557;29;20314;-90
2024/01/09 07:47:21;;;;;;;10.33;5.30;;;;;;;-14.46;88.84;103155.38;4920067;29;20394;-90
2024/01/09 07:49:49;;;;;;;17.17;6.00;;;;;;;-14.56;88.60;103155.94;4934870;29;20382;-90
2024/01/09 07:52:17;;;;;;;10.33;6.30;;;;;;;-14.63;89.33;103162.63;4919650;29;20803;-90
2024/01/09 07:54:44;;;;;;;11.07;5.87;;;;;;;-14.62;90.69;103165.38;4919034;29;20806;-90
2024/01/09 07:57:12;;;;;;;11.30;5.57;;;;;;;-14.59;91.55;103160.66;4934422;29;21763;-90
2024/01/09 07:59:48;;;;;;;14.17;5.97;;;;;;;-14.51;92.69;103165.00;4919885;29;20291;-91
2024/01/09 08:02:16;;;;;;;16.53;6.43;;;;;;;-14.46;93.17;103167.19;4934205;29;20288;-90
2024/01/09 08:04:43;;;;;;;7.70;4.30;;;;;;;-14.43;93.35;103157.38;4934280;29;20377;-90
2024/01/09 08:07:10;;;;;;;12.60;5.67;;;;;;;-14.39;93.08;103165.53;4918699;29;20303;-91
2024/01/09 08:09:38;;;;;;;10.87;5.67;;;;;;;-14.34;92.17;103169.53;4917541;29;20347;-91
2024/01/09 08:12:05;;;;;;;9.77;5.00;;;;;;;-14.24;91.96;103159.72;4918330;29;20847;-91
2024/01/09 08:14:32;;;;;;;12.97;5.23;;;;;;;-14.21;90.38;103177.88;4934209;29;20322;-90
2024/01/09 08:17:00;;;;;;;23.73;6.27;;;;;;;-14.14;89.64;103173.50;4933914;29;20311;-90
2024/01/09 08:19:27;;;;;;;11.40;5.57;;;;;;;-14.15;88.83;103170.06;4918131;29;20306;-90
2024/01/09 08:21:55;;;;;;;10.40;5.00;;;;;;;-14.07;88.81;103168.41;4902448;29;20707;-90
2024/01/09 08:24:22;;;;;;;14.90;6.33;;;;;;;-14.13;88.49;103172.78;4933536;29;20294;-91
2024/01/09 08:26:49;;;;;;;14.80;6.03;;;;;;;-14.26;89.44;103176.41;4906744;29;20305;-91
2024/01/09 08:29:17;;;;;;;11.03;5.60;;;;;;;-14.25;91.24;103168.06;4934605;29;20331;-91
2024/01/09 08:31:45;;;;;;;14.93;6.70;;;;;;;-14.16;92.28;103168.25;4901917;29;20295;-92
2024/01/09 08:34:13;;;;;;;11.40;4.80;;;;;;;-14.05;93.15;103178.03;4902460;29;20295;-91
2024/01/09 08:36:43;;;;;;;11.73;5.93;;;;;;;-13.99;93.66;103168.59;4917428;29;20338;-90
2024/01/09 08:39:10;;;;;;;16.67;6.07;;;;;;;-13.87;94.61;103178.38;4918203;29;20299;-91
2024/01/09 08:41:38;;;;;;;11.77;6.23;;;;;;;-13.78;95.31;103180.38;4938792;29;20299;-91
2024/01/09 08:44:05;;;;;;;15.90;6.23;;;;;;;-13.67;95.31;103176.53;4933302;29;20342;-92
2024/01/09 08:46:33;;;;;;;10.20;5.87;;;;;;;-13.65;95.44;103181.06;4925506;29;20394;-91
2024/01/09 08:49:00;;;;;;;13.23;6.47;;;;;;;-13.51;94.81;103176.69;4917944;29;20306;-89
2024/01/09 08:51:28;;;;;;;12.40;5.13;;;;;;;-13.55;94.25;103179.56;4919551;29;20303;-87
2024/01/09 08:53:56;;;;;;;15.93;6.73;;;;;;;-13.55;94.62;103185.56;4925646;29;20298;-89
2024/01/09 08:56:23;;;;;;;14.10;6.07;;;;;;;-13.52;95.25;103180.84;4906425;29;20769;-90
2024/01/09 08:58:50;;;;;;;14.23;5.47;;;;;;;-13.44;95.99;103192.81;4934849;29;20300;-90
2024/01/09 09:01:21;;;;;;;15.23;6.13;;;;;;;-13.32;96.28;103185.69;4901799;29;20776;-88
2024/01/09 09:03:48;;;;;;;12.17;4.73;;;;;;;-13.21;96.78;103186.91;4902384;29;20299;-88
2024/01/09 09:06:16;;;;;;;11.10;6.37;;;;;;;-13.12;96.84;103186.28;4917567;29;20295;-89
2024/01/09 09:08:44;;;;;;;11.37;5.63;;;;;;;-13.01;96.99;103190.06;4917736;29;20382;-90
2024/01/09 09:11:16;;;;;;;13.57;7.67;;;;;;;-12.93;97.42;103190.94;4903786;29;20303;-88
2024/01/09 09:13:44;;;;;;;10.47;6.77;;;;;;;-12.84;97.98;103184.34;4917913;29;20843;-89
2024/01/09 09:16:11;;;;;;;17.40;7.80;;;;;;;-12.77;98.04;103181.78;4929415;29;20303;-88
2024/01/09 09:18:39;;;;;;;13.07;6.73;;;;;;;-12.66;98.60;103186.41;4917544;29;20378;-90
2024/01/09 09:21:06;;;;;;;15.77;6.17;;;;;;;-12.57;99.14;103186.53;4901222;29;20661;-89
2024/01/09 09:23:34;;;;;;;12.40;6.80;;;;;;;-12.47;98.94;103180.84;4906439;29;20310;-88
2024/01/09 09:26:03;;;;;;;35.43;8.77;;;;;;;-12.43;99.67;103176.28;4935117;29;20305;-89
2024/01/09 09:28:30;;;;;;;14.70;7.10;;;;;;;-12.37;99.66;103169.28;4917877;29;20851;-89
2024/01/09 09:31:15;;;;;;;13.57;6.80;;;;;;;-12.17;100.00;103173.16;4919502;29;20295;-89
2024/01/09 09:33:43;;;;;;;12.70;6.30;;;;;;;-12.17;100.00;103174.06;4917161;29;20677;-90
2024/01/09 09:36:13;;;;;;;18.20;7.57;;;;;;;-12.13;100.00;103167.66;4917144;29;20822;-90
2024/01/09 09:38:41;;;;;;;21.57;8.10;;;;;;;-12.07;100.00;103163.25;4933566;29;20358;-89
2024/01/09 09:41:16;;;;;;;36.17;15.87;;;;;;;-12.01;100.00;103169.91;4901288;29;20737;-89
2024/01/09 09:43:50;;;;;;;30.17;14.77;;;;;;;-11.91;100.00;103168.38;4916721;29;20329;-89
2024/01/09 09:46:22;;;;;;;21.58;9.82;;;;;;;-11.84;100.00;103164.13;4933263;29;20297;-90
2024/01/09 09:48:53;;;;;;;16.52;7.13;;;;;;;-11.76;100.00;103163.28;4901622;29;20078;-89
2024/01/09 09:51:24;;;;;;;14.50;6.00;;;;;;;-11.69;100.00;103159.72;4933779;29;20529;-89
2024/01/09 09:53:54;;;;;;;15.23;7.07;;;;;;;-11.63;100.00;103156.19;4933354;29;20299;-89
2024/01/09 09:56:24;;;;;;;15.47;6.73;;;;;;;-11.53;100.00;103152.06;4916851;29;20295;-89
2024/01/09 09:58:51;;;;;;;20.73;8.10;;;;;;;-11.44;100.00;103158.16;4901476;29;20701;-90
2024/01/09 10:01:22;;;;;;;13.47;6.63;;;;;;;-11.41;100.00;103156.88;4916762;29;20448;-89
2024/01/09 10:03:55;;;;;;;12.90;7.13;;;;;;;-11.33;100.00;103160.25;4930151;29;20306;-90
2024/01/09 10:06:24;;;;;;;13.95;6.75;;;;;;;-11.25;100.00;103148.31;4917011;29;20773;-89
2024/01/09 10:08:54;;;;;;;20.03;7.50;;;;;;;-11.16;100.00;103151.84;4901907;29;20043;-90
2024/01/09 10:11:21;;;;;;;13.13;7.27;;;;;;;-11.10;100.00;103160.13;4901251;29;20653;-89
2024/01/09 10:13:49;;;;;;;14.47;6.97;;;;;;;-10.98;100.00;103150.31;4896974;29;20892;-89
2024/01/09 10:16:16;;;;;;;12.37;6.13;;;;;;;-10.93;100.00;103149.13;4917427;29;20291;-90
2024/01/09 10:18:45;;;;;;;13.93;6.93;;;;;;;-10.84;100.00;103156.13;4917653;29;20291;-90
2024/01/09 10:21:12;;;;;;;11.00;6.73;;;;;;;-10.74;100.00;103160.56;4936780;29;20302;-90
2024/01/09 10:23:40;;;;;;;14.77;6.53;;;;;;;-10.66;100.00;103159.72;4923653;29;20870;-89
2024/01/09 10:26:10;;;;;;;11.83;6.50;;;;;;;-10.49;100.00;103158.00;4916285;29;20363;-88
2024/01/09 10:28:38;;;;;;;14.17;6.73;;;;;;;-10.15;100.00;103157.22;4933960;29;20305;-89
2024/01/09 10:31:06;;;;;;;16.20;7.67;;;;;;;-10.09;100.00;103152.72;4901644;29;20299;-89
2024/01/09 10:33:39;;;;;;;14.53;7.03;;;;;;;-9.94;100.00;103150.06;4917781;29;20509;-91
2024/01/09 10:36:07;;;;;;;12.38;6.93;;;;;;;-9.81;100.00;103147.13;4917566;29;20675;-92
2024/01/09 10:38:35;;;;;;;12.27;7.07;;;;;;;-9.67;100.00;103145.94;4916668;29;20130;-90
2024/01/09 10:41:16;;;;;;;18.93;7.27;;;;;;;-9.49;100.00;103146.88;4916156;29;20295;-90
2024/01/09 10:43:44;;;;;;;17.90;8.17;;;;;;;-9.39;100.00;103140.28;4901143;29;20769;-91
2024/01/09 10:46:12;;;;;;;16.83;8.10;;;;;;;-9.25;100.00;103138.16;4916245;29;20745;-90
2024/01/09 10:48:41;;;;;;;16.20;7.50;;;;;;;-9.06;100.00;103134.09;4931769;29;20300;-90
2024/01/09 10:51:13;;;;;;;15.47;7.10;;;;;;;-8.71;100.00;103122.16;4907735;29;20306;-88
2024/01/09 10:53:41;;;;;;;16.77;7.37;;;;;;;-8.61;100.00;103124.81;4915469;29;20788;-90
2024/01/09 10:56:09;;;;;;;14.40;6.47;;;;;;;-8.49;100.00;103131.88;4892877;29;20295;-89
2024/01/09 10:58:37;;;;;;;13.50;6.47;;;;;;;-8.22;100.00;103116.53;4900262;29;20785;-89
2024/01/09 11:01:04;;;;;;;12.50;6.50;;;;;;;-7.72;100.00;103123.81;4899214;29;20291;-89
2024/01/09 11:03:32;;;;;;;12.73;6.87;;;;;;;-7.49;100.00;103123.34;4900222;29;20422;-89
2024/01/09 11:06:03;;;;;;;13.93;7.37;;;;;;;-7.32;100.00;103113.69;4900660;29;20310;-88
2024/01/09 11:08:34;;;;;;;13.67;8.27;;;;;;;-7.15;100.00;103114.44;4900886;29;20323;-88
2024/01/09 11:11:11;;;;;;;15.57;7.63;;;;;;;-6.85;100.00;103110.25;4899468;29;20299;-88
2024/01/09 11:13:42;;;;;;;14.80;6.70;;;;;;;-6.68;99.64;103114.31;4915582;29;20654;-87
2024/01/09 11:16:11;;;;;;;12.47;6.10;;;;;;;-6.45;99.35;103113.78;4892207;29;20317;-88
2024/01/09 11:18:38;;;;;;;54.00;10.23;;;;;;;-6.27;97.90;103102.50;4900091;29;20067;-88
2024/01/09 11:21:06;;;;;;;27.90;8.63;;;;;;;-6.09;96.27;103098.03;4899682;29;20082;-89
2024/01/09 11:23:42;;;;;;;14.50;7.40;;;;;;;-6.00;93.00;103098.81;4933592;29;20043;-88
2024/01/09 11:26:13;;;;;;;22.77;6.53;;;;;;;-5.80;93.32;103091.09;4933254;29;20042;-89
2024/01/09 11:28:45;;;;;;;12.07;5.93;;;;;;;-5.64;89.02;103097.50;4928520;29;20048;-89
2024/01/09 11:31:19;;;;;;;11.97;6.33;;;;;;;-5.42;87.54;103088.22;4924622;29;20051;-89
2024/01/09 11:33:48;;;;;;;15.55;5.75;;;;;;;-5.29;86.96;103087.59;4898458;29;20460;-89
2024/01/09 11:36:33;;;;;;;17.23;6.43;;;;;;;-5.28;83.40;103086.81;4899870;29;20052;-89
2024/01/09 11:39:01;;;;;;;13.52;5.28;;;;;;;-5.19;80.75;103083.31;4914861;29;20056;-88
2024/01/09 11:41:37;;;;;;;9.23;5.10;;;;;;;-5.09;78.65;103072.06;4899019;29;20142;-89
2024/01/09 11:44:06;;;;;;;14.80;5.53;;;;;;;-4.93;77.14;103074.22;4916576;29;20040;-89
2024/01/09 11:46:38;;;;;;;12.10;5.77;;;;;;;-4.95;77.38;103062.88;4899812;29;20112;-89
2024/01/09 11:49:07;;;;;;;12.63;5.00;;;;;;;-5.04;76.80;103068.19;4885067;29;20513;-89
2024/01/09 11:51:36;;;;;;;8.87;5.20;;;;;;;-4.96;77.53;103058.47;4885773;29;20048;-89
2024/01/09 11:54:04;;;;;;;8.73;5.13;;;;;;;-4.92;76.45;103060.53;4926333;23;21139;-88
2024/01/09 11:56:32;;;;;;;8.43;3.93;;;;;;;-4.94;72.29;103060.41;4924748;29;20102;-88
2024/01/09 11:59:00;;;;;;;9.37;4.83;;;;;;;-5.01;73.30;103058.13;4899535;29;20051;-88
2024/01/09 12:01:28;;;;;;;7.47;5.17;;;;;;;-4.99;71.42;103059.13;4902042;29;20162;-88
2024/01/09 12:03:57;;;;;;;10.93;4.20;;;;;;;-5.09;67.29;103048.88;4878122;29;20525;-87
2024/01/09 12:06:26;;;;;;;9.10;4.60;;;;;;;-5.06;69.69;103045.63;4888680;29;20048;-87
2024/01/09 12:08:54;;;;;;;8.10;3.83;;;;;;;-4.85;66.31;103044.78;4898005;29;20076;-88
2024/01/09 12:11:21;;;;;;;17.03;5.83;;;;;;;-5.01;66.51;103052.06;4897427;29;20091;-88
2024/01/09 12:14:00;;;;;;;24.80;6.40;;;;;;;-5.11;69.48;103046.16;4897971;29;20100;-88
2024/01/09 12:16:31;;;;;;;21.23;5.67;;;;;;;-5.17;71.59;103049.91;4903378;29;20059;-88
2024/01/09 12:18:59;;;;;;;7.50;3.80;;;;;;;-5.05;67.89;103040.59;4906783;29;20103;-88
2024/01/09 12:21:30;;;;;;;13.37;4.07;;;;;;;-5.16;68.25;103041.41;4869649;29;20036;-89
2024/01/09 12:23:59;;;;;;;8.43;4.17;;;;;;;-4.98;65.68;103036.84;4900625;29;20420;-88
2024/01/09 12:26:30;;;;;;;92.60;12.83;;;;;;;-4.84;63.40;103028.53;4914957;29;20052;-88
2024/01/09 12:28:58;;;;;;;13.47;4.07;;;;;;;-4.72;61.73;103032.06;4903394;29;20115;-89
2024/01/09 12:31:26;;;;;;;14.97;5.30;;;;;;;-4.89;62.89;103040.16;4918595;29;20099;-88
2024/01/09 12:33:53;;;;;;;9.47;3.90;;;;;;;-4.62;59.64;103029.47;4905491;29;20040;-89
2024/01/09 12:36:23;;;;;;;22.07;5.73;;;;;;;-4.84;61.37;103026.84;4906316;29;20051;-89
2024/01/09 12:38:52;;;;;;;15.20;4.10;;;;;;;-4.95;62.98;103031.94;4902336;29;20044;-89
2024/01/09 12:41:23;;;;;;;8.23;4.00;;;;;;;-5.06;64.15;103030.16;4896936;29;20051;-89
2024/01/09 12:43:51;;;;;;;10.23;4.40;;;;;;;-5.00;65.21;103028.97;4898120;29;20052;-89
2024/01/09 12:46:21;;;;;;;8.90;3.73;;;;;;;-5.06;65.25;103023.31;4901616;29;20048;-89
2024/01/09 12:48:52;;;;;;;5.37;2.80;;;;;;;-5.12;66.35;103026.34;4914557;29;20104;-89
2024/01/09 12:51:19;;;;;;;9.47;3.50;;;;;;;-5.17;67.43;103012.16;4885771;29;20081;-88
2024/01/09 12:53:47;;;;;;;8.23;3.30;;;;;;;-5.15;67.90;103022.59;4911131;29;20053;-90
2024/01/09 12:56:15;;;;;;;5.83;3.10;;;;;;;-5.12;67.60;103023.75;4887624;29;20657;-90
2024/01/09 12:58:45;;;;;;;7.23;3.60;;;;;;;-5.03;66.99;103021.00;4887590;29;20131;-90
2024/01/09 13:01:16;;;;;;;6.97;3.73;;;;;;;-5.15;66.32;103017.44;4902410;29;20044;-90
2024/01/09 13:03:45;;;;;;;4.87;2.73;;;;;;;-5.05;65.34;103009.66;4892832;29;20047;-89
2024/01/09 13:06:13;;;;;;;7.70;3.70;;;;;;;-5.02;62.30;103009.94;4897659;29;20463;-89
2024/01/09 13:08:41;;;;;;;6.40;3.00;;;;;;;-4.97;58.47;102997.38;4896536;29;20053;-90
2024/01/09 13:11:11;;;;;;;6.10;3.80;;;;;;;-5.01;61.03;103004.00;4884845;29;20423;-90
2024/01/09 13:13:39;;;;;;;6.87;3.43;;;;;;;-5.07;62.38;103010.31;4896858;29;20056;-90
2024/01/09 13:16:08;;;;;;;8.93;3.63;;;;;;;-5.16;64.01;103013.06;4914227;29;20532;-90
2024/01/09 13:18:36;;;;;;;4.77;3.47;;;;;;;-5.18;65.25;103014.63;4914057;29;20107;-89
2024/01/09 13:21:04;;;;;;;5.67;3.70;;;;;;;-5.24;64.71;103017.59;4914047;29;20046;-89
2024/01/09 13:23:33;;;;;;;7.03;4.20;;;;;;;-5.22;65.09;103022.88;4894217;29;20102;-89
2024/01/09 13:26:04;;;;;;;6.00;3.53;;;;;;;-5.29;65.33;103018.91;4893756;29;20048;-89
2024/01/09 13:28:31;;;;;;;5.53;2.90;;;;;;;-5.27;65.68;103014.78;4887364;29;20477;-89
2024/01/09 13:30:59;;;;;;;39.90;19.10;;;;;;;-5.24;64.91;103017.59;4893935;29;20135;-89
2024/01/09 13:33:26;;;;;;;22.33;10.53;;;;;;;-5.24;64.94;103009.88;4889590;29;20127;-89
2024/01/09 13:35:57;;;;;;;7.43;4.10;;;;;;;-5.28;63.73;103005.25;4912742;29;20040;-89
2024/01/09 13:38:25;;;;;;;7.27;3.63;;;;;;;-5.14;63.63;103009.81;4885857;29;20236;-89
2024/01/09 13:40:52;;;;;;;6.00;3.47;;;;;;;-5.14;64.80;103014.06;4886513;29;20131;-89
2024/01/09 13:43:23;;;;;;;5.47;3.17;;;;;;;-5.23;66.35;103009.09;4873069;29;20104;-90
2024/01/09 13:45:54;;;;;;;4.93;2.90;;;;;;;-5.18;66.43;103009.47;4898458;29;20052;-90
2024/01/09 13:48:21;;;;;;;6.87;3.43;;;;;;;-5.19;66.30;103012.81;4898220;29;20115;-89
2024/01/09 13:50:49;;;;;;;7.10;3.57;;;;;;;-5.28;67.14;103018.13;4873630;29;20108;-89
2024/01/09 13:53:19;;;;;;;4.50;2.80;;;;;;;-5.32;67.76;103015.19;4892674;29;20056;-89
2024/01/09 13:55:49;;;;;;;9.37;3.73;;;;;;;-5.29;68.41;103018.91;4881117;29;20493;-89
2024/01/09 13:58:17;;;;;;;6.40;3.20;;;;;;;-5.38;70.74;103018.16;4880719;29;20116;-89
2024/01/09 14:00:44;;;;;;;6.43;3.03;;;;;;;-5.31;68.87;103016.97;4916239;29;20039;-89
2024/01/09 14:03:12;;;;;;;5.30;3.13;;;;;;;-5.19;66.96;103011.16;4920196;29;20116;-90
2024/01/09 14:05:39;;;;;;;6.30;3.10;;;;;;;-5.33;67.40;103005.66;4927867;29;20048;-89
2024/01/09 14:08:07;;;;;;;5.83;3.10;;;;;;;-5.33;68.78;103009.13;4913341;29;20044;-89
2024/01/09 14:10:34;;;;;;;24.83;15.30;;;;;;;-5.38;68.83;103013.03;4910731;29;20463;-89
2024/01/09 14:13:02;;;;;;;49.60;10.60;;;;;;;-5.53;71.10;103007.50;4895620;29;20139;-89
2024/01/09 14:15:30;;;;;;;20.17;5.83;;;;;;;-5.52;71.92;103001.59;4894195;29;20045;-89
2024/01/09 14:17:57;;;;;;;30.40;5.50;;;;;;;-5.57;74.61;103010.59;4879169;29;20053;-89
2024/01/09 14:20:27;;;;;;;21.13;4.13;;;;;;;-5.50;75.44;103007.75;4911667;29;20047;-89
2024/01/09 14:22:54;;;;;;;10.43;3.50;;;;;;;-5.63;77.19;103004.03;4894439;29;20049;-89
2024/01/09 14:25:22;;;;;;;8.77;3.73;;;;;;;-5.75;78.65;102994.53;4863383;29;20250;-89
2024/01/09 14:27:51;;;;;;;7.43;3.30;;;;;;;-5.80;79.92;103000.06;4874438;29;20438;-89
2024/01/09 14:30:19;;;;;;;7.07;3.57;;;;;;;-5.90;81.26;102998.41;4924657;29;20042;-89
2024/01/09 14:32:49;;;;;;;8.63;3.17;;;;;;;-5.80;81.77;103008.72;4916236;29;20039;-89
2024/01/09 14:35:17;;;;;;;7.03;4.40;;;;;;;-5.74;79.04;102996.34;4900843;29;20047;-89
2024/01/09 14:37:45;;;;;;;5.20;2.57;;;;;;;-5.88;77.32;102996.88;4878145;29;20051;-89
2024/01/09 14:40:13;;;;;;;4.47;3.00;;;;;;;-5.86;74.09;102990.19;4909496;29;20079;-90
2024/01/09 14:42:40;;;;;;;5.73;3.00;;;;;;;-5.93;72.54;102993.06;4878576;29;20094;-89
2024/01/09 14:45:10;;;;;;;5.33;3.07;;;;;;;-6.07;71.88;102984.16;4897962;29;20051;-89
2024/01/09 14:47:37;;;;;;;3.90;2.20;;;;;;;-6.21;72.73;102999.25;4918401;29;20073;-90
2024/01/09 14:50:06;;;;;;;5.27;3.33;;;;;;;-6.28;73.10;102991.00;4898019;29;20092;-90
2024/01/09 14:52:34;;;;;;;4.53;2.37;;;;;;;-6.40;72.96;102987.38;4896914;29;20390;-90
2024/01/09 14:55:08;;;;;;;5.33;3.00;;;;;;;-6.53;73.77;102982.88;4941673;29;20143;-94
2024/01/09 14:57:36;;;;;;;5.93;2.97;;;;;;;-6.60;74.87;102979.63;4930549;29;20040;-95
2024/01/09 15:00:04;;;;;;;6.17;2.30;;;;;;;-6.68;76.22;102984.13;4948053;29;20059;-94
2024/01/09 15:02:33;;;;;;;6.20;2.60;;;;;;;-6.73;78.63;102992.19;4933468;29;20067;-94
2024/01/09 15:05:00;;;;;;;4.63;2.70;;;;;;;-6.81;80.05;102988.97;4934770;29;20301;-94
2024/01/09 15:07:28;;;;;;;5.27;2.83;;;;;;;-6.87;82.00;102984.22;4920930;29;20052;-95
2024/01/09 15:09:57;;;;;;;5.23;2.60;;;;;;;-6.92;82.07;102982.91;4921753;29;20048;-96
2024/01/09 15:12:31;;;;;;;4.60;2.70;;;;;;;-6.97;81.64;102988.44;4937133;28;20049;-94
2024/01/09 15:14:59;;;;;;;4.77;2.90;;;;;;;-7.13;80.70;102986.19;4922504;28;20052;-95
2024/01/09 15:17:27;;;;;;;6.70;3.30;;;;;;;-7.22;81.33;102978.56;4939416;28;20044;-93
2024/01/09 15:19:56;;;;;;;4.73;2.80;;;;;;;-7.24;82.12;102986.88;4926723;28;20032;-94
2024/01/09 15:22:24;;;;;;;5.00;2.60;;;;;;;-7.26;81.88;102978.16;4941833;29;20032;-94
2024/01/09 15:24:55;;;;;;;6.83;2.87;;;;;;;-7.36;80.88;102979.00;4941410;28;20294;-94
2024/01/09 15:27:30;;;;;;;5.70;3.17;;;;;;;-7.38;81.00;102981.44;4925953;28;20052;-94
2024/01/09 15:30:12;;;;;;;9.43;3.73;;;;;;;-7.28;78.13;102971.97;4913539;29;20055;-96
2024/01/09 15:32:53;;;;;;;10.53;3.63;;;;;;;-7.46;78.40;102973.81;4928139;28;20040;-94
2024/01/09 15:35:35;;;;;;;9.33;3.27;;;;;;;-7.62;78.90;102976.69;4927816;29;20068;-94
2024/01/09 15:38:44;;;;;;;7.70;2.70;;;;;;;-7.72;80.82;102974.97;4941879;28;20299;-95
2024/01/09 15:42:02;;;;;;;5.00;3.17;;;;;;;-7.77;81.27;102975.31;4941543;29;20040;-95
2024/01/09 15:44:51;;;;;;;9.77;3.57;;;;;;;-7.85;82.52;102969.47;4928318;29;20061;-94
2024/01/09 15:47:40;;;;;;;6.80;3.10;;;;;;;-7.96;82.64;102968.50;4941781;28;20308;-93
2024/01/09 15:50:09;;;;;;;5.70;3.03;;;;;;;-7.95;82.30;102980.56;4925888;28;20288;-93
2024/01/09 15:52:38;;;;;;;7.53;3.63;;;;;;;-7.69;80.47;102972.66;4941560;28;20307;-93
2024/01/09 15:55:06;;;;;;;7.63;3.37;;;;;;;-7.67;78.24;102972.78;4925755;28;20359;-92
2024/01/09 15:58:46;;;;;;;;;;;;;;;;;;;;;
